Harpswell, Maine
Current Conditions -  °F | °C
As of 11:51 AM on Thursday 30 Oct 2014 (Local Time) from KPWM Reporting Station
Overcast Overcast  
Wind Chill: 53°   Ceiling: 8500
Heat Index: 53°   Visibility: 10mi
Dew Point: 43°   Wind: 7mph
Humidity: 69%   Direction: 300°WNW
Pressure: 29.9"   Gusts: NA
Location:  43.74°N, 70.01°W
Report Text: KPWM 301551Z 30006KT 10SM OVC085 12/06 A2990 RMK AO2 SLP126 T01170061
Loading
Personal Weather Stations






























Interactive Weather Map
Tropical Storm Tracking
New forecast layout! Learn more

10-Day Weather Forecast

Advertisements
Track Severe Weather on mobile